KEAT/EAT METAR and TAF weather

Enter ICAO airport designator
Station Type Date Time Source
KEAT METAR 2022/12/10 01:55 UTC NOAA

KEAT 100155Z AUTO 00000KT 1SM -SN BR VV011 M06/M07 A2985 RMK AO2 SLP127 P0004 T10611072


Station Type Date Time Source
KEAT Decoded METAR 2022/12/10 01:55 UTC NOAA

WENATCHEE PANGBORN MEMO, WA, United States (KEAT) 47-24N 120-12W 377M
Dec 09, 2022 - 08:55 PM EST / 2022.12.10 0155 UTC
Wind: Calm:0
Visibility: 1 mile(s):0
Sky conditions: obscured
Weather: light snow; mist
Precipitation last hour: 0.04 inches
Temperature: 21.0 F (-6.1 C)
Dew Point: 19.0 F (-7.2 C)
Relative Humidity: 91%
Pressure (altimeter): 29.85 in. Hg (1010 hPa)
ob: KEAT 100155Z AUTO 00000KT 1SM -SN BR VV011 M06/M07 A2985 RMK AO2 SLP127 P0004 T10611072
cycle: 2

Station Type Date Time Source
KEAT TAF 2022/12/09 18:45 UTC NOAA

TAF KEAT 091742Z 0918/1018 09005KT 3SM BR OVC002
FM092100 14003KT 3SM BR SCT007 BKN100 OVC200
FM100100 13003KT 2SM -SN BKN005 OVC012
FM101200 05001KT 1SM -SN BR OVC007

Example: see airport list